createdAt,value
2019-02-27T00:02:13.824Z,43.10
2019-02-27T00:04:42.958Z,45.80
2019-02-27T00:07:20.834Z,49.63
2019-02-27T00:09:48.274Z,47.30
2019-02-27T00:12:19.404Z,42.87
2019-02-27T00:14:50.476Z,46.83
2019-02-27T00:17:20.834Z,49.33
2019-02-27T00:19:49.954Z,49.50
2019-02-27T00:22:19.095Z,50.00
2019-02-27T00:24:48.095Z,46.27
2019-02-27T00:27:19.014Z,44.13
2019-02-27T00:29:48.148Z,47.43
2019-02-27T00:32:18.652Z,45.30
2019-02-27T00:34:48.289Z,47.97
2019-02-27T00:37:18.939Z,49.57
2019-02-27T00:39:48.697Z,45.70
2019-02-27T00:42:20.689Z,51.53
2019-02-27T00:44:48.740Z,46.40
2019-02-27T00:47:20.121Z,39.93
2019-02-27T00:49:49.084Z,42.00
2019-02-27T00:52:18.805Z,44.37
2019-02-27T00:54:48.153Z,44.40
2019-02-27T00:57:20.495Z,51.47
2019-02-27T00:59:48.303Z,48.57
2019-02-27T01:02:19.906Z,49.03
2019-02-27T01:04:48.367Z,49.57
2019-02-27T01:07:20.588Z,54.67
2019-02-27T01:09:48.535Z,49.93
2019-02-27T01:12:22.891Z,50.20
2019-02-27T01:14:54.005Z,46.30
2019-02-27T01:17:23.863Z,56.37
2019-02-27T01:19:54.716Z,51.87
2019-02-27T01:22:25.602Z,48.10
2019-02-27T01:24:56.982Z,49.63
2019-02-27T01:27:29.366Z,50.23
2019-02-27T01:30:00.788Z,50.77
2019-02-27T01:32:32.229Z,52.97
2019-02-27T01:35:04.392Z,47.50
2019-02-27T01:37:34.387Z,47.03
2019-02-27T01:40:03.819Z,45.60
2019-02-27T01:42:34.656Z,48.17
2019-02-27T01:45:05.709Z,50.33
2019-02-27T01:47:36.578Z,48.43
2019-02-27T01:50:45.992Z,49.17
2019-02-27T01:53:18.077Z,45.03
2019-02-27T01:55:47.215Z,47.53
2019-02-27T01:58:16.485Z,47.77
2019-02-27T02:00:45.945Z,49.27
2019-02-27T02:03:15.139Z,47.87
2019-02-27T02:05:44.380Z,53.33
2019-02-27T02:08:13.843Z,50.67
2019-02-27T02:10:43.824Z,46.13
2019-02-27T02:13:22.511Z,47.50
2019-02-27T02:16:15.802Z,48.33
2019-02-27T02:19:31.432Z,49.20
2019-02-27T02:22:41.318Z,49.17
2019-02-27T02:25:49.844Z,42.97
2019-02-27T02:28:53.642Z,51.20
2019-02-27T02:31:59.709Z,48.63
2019-02-27T02:35:16.586Z,49.83
2019-02-27T02:38:26.922Z,44.47
2019-02-27T02:41:22.443Z,49.50
2019-02-27T02:44:34.174Z,48.40
2019-02-27T02:47:32.414Z,50.80
2019-02-27T02:50:38.760Z,47.17
2019-02-27T02:53:38.720Z,49.30
2019-02-27T02:56:37.326Z,52.03
2019-02-27T02:59:47.864Z,49.27
2019-02-27T03:02:43.214Z,48.37
2019-02-27T03:05:58.524Z,43.17
2019-02-27T03:08:34.732Z,48.77
2019-02-27T03:11:28.965Z,47.73
2019-02-27T03:14:23.657Z,48.03
2019-02-27T03:17:24.574Z,49.07
2019-02-27T03:20:29.562Z,45.37
2019-02-27T03:23:24.918Z,44.87
2019-02-27T03:26:09.974Z,54.20
2019-02-27T03:29:15.565Z,47.37
2019-02-27T03:32:05.402Z,46.53
2019-02-27T03:35:10.335Z,48.07
2019-02-27T03:37:57.042Z,50.33
2019-02-27T03:40:52.693Z,48.67
2019-02-27T03:44:20.274Z,43.97
2019-02-27T03:47:15.617Z,45.07
2019-02-27T03:50:14.916Z,45.00
2019-02-27T03:53:20.579Z,54.10
2019-02-27T03:56:36.760Z,46.73
2019-02-27T03:59:43.793Z,48.40
2019-02-27T04:02:51.438Z,44.37
2019-02-27T04:06:21.324Z,46.80
2019-02-27T04:08:58.288Z,43.10
2019-02-27T04:11:27.895Z,45.67
2019-02-27T04:14:03.088Z,47.57
2019-02-27T04:16:30.550Z,45.17
2019-02-27T04:19:04.436Z,45.17
2019-02-27T04:21:34.755Z,46.47
2019-02-27T04:24:04.155Z,47.00
2019-02-27T04:26:34.372Z,48.10
2019-02-27T04:29:04.464Z,46.33
2019-02-27T04:31:34.924Z,44.57
2019-02-27T04:34:04.075Z,45.80
2019-02-27T04:36:33.301Z,49.40
2019-02-27T04:39:03.135Z,48.63
2019-02-27T04:41:32.372Z,46.60
2019-02-27T04:44:05.354Z,47.90
2019-02-27T04:46:32.494Z,48.07
2019-02-27T04:49:04.334Z,40.67
2019-02-27T04:51:32.456Z,46.70
2019-02-27T04:54:06.417Z,50.70
2019-02-27T04:56:32.498Z,48.17
2019-02-27T04:59:01.690Z,50.63
2019-02-27T05:01:30.848Z,44.23
2019-02-27T05:04:01.452Z,48.23
2019-02-27T05:06:30.819Z,47.13
2019-02-27T05:09:00.738Z,43.73
2019-02-27T05:11:30.022Z,44.20
2019-02-27T05:13:59.235Z,45.73
2019-02-27T05:16:28.415Z,44.67
2019-02-27T05:18:57.550Z,49.63
2019-02-27T05:21:26.767Z,49.53
2019-02-27T05:23:56.188Z,47.43
2019-02-27T05:26:27.346Z,46.43
2019-02-27T05:28:56.243Z,44.83
2019-02-27T05:31:25.359Z,42.27
2019-02-27T05:33:54.569Z,38.53
2019-02-27T05:36:23.794Z,41.03
2019-02-27T05:38:52.899Z,47.57
2019-02-27T05:41:22.012Z,47.57
2019-02-27T05:43:51.157Z,53.57
2019-02-27T05:46:20.190Z,42.33
2019-02-27T05:48:50.924Z,49.37
2019-02-27T05:51:20.201Z,47.47
2019-02-27T05:53:49.355Z,49.90
2019-02-27T05:56:18.470Z,47.13
2019-02-27T05:58:47.643Z,50.77
2019-02-27T06:01:16.848Z,42.77
2019-02-27T06:03:45.864Z,49.97
2019-02-27T06:06:15.045Z,49.80
2019-02-27T06:08:45.492Z,43.17
2019-02-27T06:11:14.616Z,52.20
2019-02-27T06:13:45.013Z,49.30
2019-02-27T06:16:14.991Z,46.93
2019-02-27T06:18:44.481Z,45.40
2019-02-27T06:21:16.422Z,53.37
2019-02-27T06:23:44.587Z,52.10
2019-02-27T06:26:14.502Z,49.60
2019-02-27T06:28:44.703Z,50.40
2019-02-27T06:31:13.847Z,39.77
2019-02-27T06:33:45.188Z,38.17
2019-02-27T06:36:13.853Z,42.40
2019-02-27T06:38:42.999Z,44.33
2019-02-27T06:41:15.416Z,42.33
2019-02-27T06:43:43.065Z,42.17
2019-02-27T06:46:12.205Z,51.00
2019-02-27T06:48:43.572Z,56.63
2019-02-27T06:51:14.361Z,55.07
2019-02-27T06:53:45.329Z,47.97
2019-02-27T06:56:14.471Z,50.73
2019-02-27T06:58:43.662Z,50.17
2019-02-27T07:01:13.245Z,47.70
2019-02-27T07:03:42.759Z,56.27
2019-02-27T07:06:13.150Z,49.30
2019-02-27T07:08:42.278Z,59.67
2019-02-27T07:11:11.668Z,56.77
2019-02-27T07:13:43.917Z,59.63
2019-02-27T07:16:20.467Z,51.87
2019-02-27T07:18:51.660Z,52.17
2019-02-27T07:21:21.774Z,54.83
2019-02-27T07:23:57.588Z,57.33
2019-02-27T07:26:23.470Z,56.03
2019-02-27T07:28:52.512Z,49.73
2019-02-27T07:31:23.342Z,54.77
2019-02-27T07:33:52.701Z,43.83
2019-02-27T07:36:21.885Z,49.23
2019-02-27T07:38:54.321Z,52.00
2019-02-27T07:41:23.393Z,52.13
2019-02-27T07:43:52.511Z,47.43
2019-02-27T07:46:22.976Z,47.40
2019-02-27T07:48:56.546Z,63.53
2019-02-27T07:51:23.987Z,53.50
2019-02-27T07:53:53.822Z,48.13
2019-02-27T07:56:23.835Z,48.30
2019-02-27T07:58:53.055Z,40.77
2019-02-27T08:01:23.516Z,41.77
2019-02-27T08:03:53.044Z,45.13
2019-02-27T08:06:25.979Z,38.07
2019-02-27T08:08:57.278Z,38.57
2019-02-27T08:11:26.798Z,40.17
2019-02-27T08:13:55.988Z,37.80
2019-02-27T08:16:25.539Z,33.23
2019-02-27T08:18:54.753Z,33.63
2019-02-27T08:21:24.606Z,35.43
2019-02-27T08:23:55.126Z,41.67
2019-02-27T08:26:24.390Z,34.90
2019-02-27T08:28:53.589Z,35.17
2019-02-27T08:31:27.935Z,37.43
2019-02-27T08:33:54.755Z,31.63
2019-02-27T08:36:24.184Z,35.77
2019-02-27T08:38:53.610Z,36.17
2019-02-27T08:41:22.882Z,33.77
2019-02-27T08:43:52.004Z,30.23
2019-02-27T08:46:21.188Z,31.83
2019-02-27T08:48:50.731Z,35.60
2019-02-27T08:51:19.975Z,33.33
2019-02-27T08:53:49.085Z,27.60
2019-02-27T08:56:19.565Z,29.70
2019-02-27T08:58:51.075Z,29.23
2019-02-27T09:01:21.672Z,28.97
2019-02-27T09:03:52.464Z,28.67
2019-02-27T09:06:21.601Z,26.07
2019-02-27T09:08:52.167Z,26.53
2019-02-27T09:11:21.537Z,28.47
2019-02-27T09:13:50.809Z,23.07
2019-02-27T09:16:23.089Z,27.37
2019-02-27T09:18:51.215Z,26.90
2019-02-27T09:21:20.671Z,25.87
2019-02-27T09:23:50.005Z,24.43
2019-02-27T09:26:19.205Z,25.30
2019-02-27T09:28:48.306Z,21.77
2019-02-27T09:31:17.662Z,26.90
2019-02-27T09:33:53.144Z,25.90
2019-02-27T09:36:19.798Z,23.17
2019-02-27T09:38:52.128Z,22.33
2019-02-27T09:41:23.150Z,23.53
2019-02-27T09:43:52.258Z,30.67
2019-02-27T09:46:21.378Z,24.33
2019-02-27T09:48:50.545Z,22.97
2019-02-27T09:51:22.206Z,26.37
2019-02-27T09:53:50.507Z,23.97
2019-02-27T09:56:20.218Z,26.60
2019-02-27T09:58:49.327Z,26.50
2019-02-27T10:01:20.908Z,25.93
2019-02-27T10:03:52.007Z,21.83
2019-02-27T10:06:22.799Z,24.10
2019-02-27T10:08:51.988Z,20.80
2019-02-27T10:11:22.368Z,21.13
2019-02-27T10:13:51.721Z,21.57
2019-02-27T10:16:20.857Z,22.17
2019-02-27T10:18:54.778Z,24.43
2019-02-27T10:21:20.929Z,26.43
2019-02-27T10:23:50.350Z,22.73
2019-02-27T10:26:22.030Z,24.20
2019-02-27T10:28:50.695Z,29.37
2019-02-27T10:31:19.743Z,21.83
2019-02-27T10:33:49.976Z,25.37
2019-02-27T10:36:19.109Z,24.40
2019-02-27T10:38:48.519Z,27.53
2019-02-27T10:41:17.948Z,22.17
2019-02-27T10:43:48.543Z,22.37
2019-02-27T10:46:17.992Z,27.07
2019-02-27T10:48:49.516Z,25.27
2019-02-27T10:51:18.634Z,24.20
2019-02-27T10:53:47.906Z,22.33
2019-02-27T10:56:16.950Z,22.67
2019-02-27T10:58:47.645Z,25.50
2019-02-27T11:01:17.136Z,21.60
2019-02-27T11:03:46.498Z,26.47
2019-02-27T11:06:16.957Z,21.80
2019-02-27T11:08:46.567Z,21.53
2019-02-27T11:11:19.498Z,24.30
2019-02-27T11:13:52.154Z,28.77
2019-02-27T11:16:21.418Z,26.07
2019-02-27T11:18:50.927Z,26.63
2019-02-27T11:21:20.044Z,25.40
2019-02-27T11:23:49.237Z,29.23
2019-02-27T11:26:18.539Z,24.43
2019-02-27T11:28:49.482Z,25.70
2019-02-27T11:31:19.126Z,24.67
2019-02-27T11:33:48.389Z,29.27
2019-02-27T11:36:21.787Z,28.53
2019-02-27T11:38:51.190Z,31.10
2019-02-27T11:41:42.454Z,28.47
2019-02-27T11:44:14.040Z,26.83
2019-02-27T11:46:42.819Z,36.00
2019-02-27T11:49:19.538Z,53.30
2019-02-27T11:51:53.224Z,31.80
2019-02-27T11:54:21.951Z,31.37
2019-02-27T11:56:55.533Z,29.87
2019-02-27T11:59:21.942Z,30.27
2019-02-27T12:01:55.417Z,29.93
2019-02-27T12:04:24.230Z,28.47
2019-02-27T12:06:55.257Z,26.83
2019-02-27T12:09:24.396Z,29.57
2019-02-27T12:11:53.822Z,31.53
2019-02-27T12:14:23.584Z,29.63
2019-02-27T12:16:53.574Z,32.80
2019-02-27T12:19:25.052Z,35.37
2019-02-27T12:21:59.538Z,31.07
2019-02-27T12:24:29.059Z,32.87
2019-02-27T12:27:00.282Z,35.57
2019-02-27T12:29:29.413Z,31.77
2019-02-27T12:31:59.154Z,32.83
2019-02-27T12:34:31.223Z,29.47
2019-02-27T12:37:00.700Z,32.17
2019-02-27T12:39:29.775Z,33.63
2019-02-27T12:41:58.995Z,34.13
2019-02-27T12:44:28.157Z,33.30
2019-02-27T12:46:57.281Z,30.13
2019-02-27T12:49:26.497Z,29.30
2019-02-27T12:51:55.690Z,31.97
2019-02-27T12:54:26.815Z,29.87
2019-02-27T12:56:56.032Z,29.27
2019-02-27T12:59:25.121Z,30.60
2019-02-27T13:01:55.711Z,34.17
2019-02-27T13:04:25.753Z,29.33
2019-02-27T13:06:57.267Z,29.17
2019-02-27T13:09:27.514Z,30.37
2019-02-27T13:11:56.676Z,33.90
2019-02-27T13:14:27.747Z,32.03
2019-02-27T13:16:56.954Z,33.70
2019-02-27T13:19:26.354Z,33.13
2019-02-27T13:21:55.857Z,32.53
2019-02-27T13:24:25.504Z,34.30
2019-02-27T13:26:54.676Z,31.60
2019-02-27T13:29:23.848Z,32.63
2019-02-27T13:31:53.300Z,31.60
2019-02-27T13:34:22.544Z,29.73
2019-02-27T13:36:51.662Z,35.17
2019-02-27T13:39:25.403Z,34.43
2019-02-27T13:41:51.911Z,29.93
2019-02-27T13:44:21.344Z,35.73
2019-02-27T13:46:50.457Z,31.93
2019-02-27T13:49:19.707Z,35.50
2019-02-27T13:51:48.874Z,32.73
2019-02-27T13:54:17.993Z,30.60
2019-02-27T13:56:47.194Z,32.43
2019-02-27T13:59:16.386Z,35.77
2019-02-27T14:01:45.513Z,37.93
2019-02-27T14:04:14.687Z,33.17
2019-02-27T14:06:47.304Z,32.70
2019-02-27T14:09:14.652Z,37.27
2019-02-27T14:11:43.816Z,35.60
2019-02-27T14:14:15.041Z,34.47
2019-02-27T14:16:43.945Z,40.00
2019-02-27T14:19:13.136Z,36.73
2019-02-27T14:21:42.284Z,35.13
2019-02-27T14:24:11.612Z,37.77
2019-02-27T14:26:41.405Z,38.53
2019-02-27T14:29:11.304Z,41.20
2019-02-27T14:31:43.423Z,38.00
2019-02-27T14:34:11.371Z,37.97
2019-02-27T14:36:42.517Z,36.53
2019-02-27T14:39:13.094Z,33.07
2019-02-27T14:41:42.254Z,37.37
2019-02-27T14:44:11.404Z,39.90
2019-02-27T14:46:41.950Z,37.43
2019-02-27T14:49:13.883Z,40.17
2019-02-27T14:51:43.253Z,39.30
2019-02-27T14:54:12.408Z,43.93
2019-02-27T14:56:41.892Z,45.87
2019-02-27T14:59:11.978Z,44.37
2019-02-27T15:01:41.072Z,44.27
2019-02-27T15:04:10.276Z,45.03
2019-02-27T15:06:39.390Z,50.03
2019-02-27T15:09:08.536Z,43.50
2019-02-27T15:11:38.182Z,46.47
2019-02-27T15:14:07.684Z,44.87
2019-02-27T15:16:36.830Z,44.90
2019-02-27T15:19:06.096Z,47.07
2019-02-27T15:21:36.921Z,48.23
2019-02-27T15:24:06.070Z,53.13
2019-02-27T15:26:35.195Z,46.60
2019-02-27T15:29:05.695Z,44.37
2019-02-27T15:31:35.293Z,44.93
2019-02-27T15:34:04.549Z,45.03
2019-02-27T15:36:33.736Z,46.67
2019-02-27T15:39:04.691Z,46.60
2019-02-27T15:41:35.425Z,45.37
2019-02-27T15:44:06.557Z,47.03
2019-02-27T15:46:36.780Z,44.87
2019-02-27T15:49:06.007Z,47.43
2019-02-27T15:51:35.148Z,47.93
2019-02-27T15:54:04.326Z,48.20
2019-02-27T15:56:33.451Z,49.40
2019-02-27T15:59:07.373Z,50.33
2019-02-27T16:01:34.297Z,51.37
2019-02-27T16:04:05.256Z,42.63
2019-02-27T16:06:37.051Z,48.57
2019-02-27T16:09:06.855Z,46.87
2019-02-27T16:11:35.989Z,50.10
2019-02-27T16:14:09.281Z,45.60
2019-02-27T16:16:38.198Z,45.50
2019-02-27T16:19:10.831Z,49.83
2019-02-27T16:21:41.002Z,46.07
2019-02-27T16:24:11.291Z,45.73
2019-02-27T16:26:40.430Z,48.90
2019-02-27T16:29:09.601Z,48.67
2019-02-27T16:31:39.882Z,49.30
2019-02-27T16:34:09.643Z,47.93
2019-02-27T16:36:40.485Z,51.53
2019-02-27T16:39:09.913Z,52.20
2019-02-27T16:41:39.170Z,50.93
2019-02-27T16:44:08.361Z,49.10
2019-02-27T16:46:43.239Z,51.90
2019-02-27T16:49:10.122Z,51.87
2019-02-27T16:51:40.851Z,53.33
2019-02-27T16:54:10.947Z,50.00
2019-02-27T16:56:40.036Z,53.90
2019-02-27T16:59:11.955Z,50.17
2019-02-27T17:01:40.415Z,52.83
2019-02-27T17:04:11.296Z,56.67
2019-02-27T17:06:42.320Z,48.67
2019-02-27T17:09:13.239Z,55.87
2019-02-27T17:11:42.747Z,52.90
2019-02-27T17:14:11.908Z,57.00
2019-02-27T17:16:44.299Z,53.23
2019-02-27T17:19:11.956Z,53.17
2019-02-27T17:21:41.213Z,60.93
2019-02-27T17:24:10.421Z,53.13
2019-02-27T17:26:39.878Z,55.27
2019-02-27T17:29:09.122Z,58.70
2019-02-27T17:31:38.359Z,62.20
2019-02-27T17:34:08.328Z,56.43
2019-02-27T17:36:39.826Z,56.37
2019-02-27T17:39:09.989Z,65.57
2019-02-27T17:41:41.840Z,67.30
2019-02-27T17:44:10.330Z,64.23
2019-02-27T17:46:39.478Z,64.07
2019-02-27T17:49:08.616Z,60.53
2019-02-27T17:51:39.538Z,63.73
2019-02-27T17:54:09.944Z,62.63
2019-02-27T17:56:38.996Z,63.43
2019-02-27T17:59:08.558Z,62.13
2019-02-27T18:01:39.017Z,58.20
2019-02-27T18:04:08.157Z,58.37
2019-02-27T18:06:37.461Z,59.53
2019-02-27T18:09:08.586Z,54.43
2019-02-27T18:11:38.173Z,56.23
2019-02-27T18:14:09.888Z,60.97
2019-02-27T18:16:38.412Z,65.20
2019-02-27T18:19:07.652Z,66.53
2019-02-27T18:21:37.981Z,63.93
2019-02-27T18:24:07.114Z,62.83
2019-02-27T18:26:59.227Z,71.97
2019-02-27T18:29:41.170Z,66.37
2019-02-27T18:32:09.815Z,64.53
2019-02-27T18:34:38.928Z,66.00
2019-02-27T18:37:08.073Z,64.00
2019-02-27T18:39:37.349Z,59.43
2019-02-27T18:42:06.521Z,61.53
2019-02-27T18:44:38.329Z,67.63
2019-02-27T18:47:06.578Z,74.47
2019-02-27T18:49:35.858Z,72.13
2019-02-27T18:52:06.762Z,69.33
2019-02-27T18:54:36.364Z,75.30
2019-02-27T18:57:06.482Z,74.83
2019-02-27T18:59:35.620Z,71.43
2019-02-27T19:02:04.774Z,74.07
2019-02-27T19:04:35.198Z,77.10
2019-02-27T19:07:06.694Z,67.17
2019-02-27T19:09:35.908Z,66.73
2019-02-27T19:12:06.377Z,70.27
2019-02-27T19:14:36.712Z,65.37
2019-02-27T19:17:06.683Z,72.87
2019-02-27T19:19:36.033Z,88.37
2019-02-27T19:22:07.589Z,82.93
2019-02-27T19:24:36.307Z,82.33
2019-02-27T19:27:05.585Z,80.10
2019-02-27T19:29:34.830Z,82.40
2019-02-27T19:32:04.335Z,87.63
2019-02-27T19:34:33.533Z,91.63
2019-02-27T19:37:05.202Z,91.73
2019-02-27T19:39:35.380Z,94.20
2019-02-27T19:42:04.844Z,88.93
2019-02-27T19:44:33.987Z,89.50
2019-02-27T19:47:05.583Z,86.70
2019-02-27T19:49:36.651Z,89.27
2019-02-27T19:52:05.761Z,94.70
2019-02-27T19:54:35.061Z,96.73
2019-02-27T19:57:08.482Z,95.67
2019-02-27T19:59:39.844Z,101.83
2019-02-27T20:02:09.394Z,96.83
2019-02-27T20:04:42.901Z,106.17
2019-02-27T20:07:09.984Z,105.37
2019-02-27T20:09:39.228Z,100.33
2019-02-27T20:12:09.577Z,96.90
2019-02-27T20:14:39.386Z,105.80
2019-02-27T20:17:08.837Z,93.03
2019-02-27T20:19:41.220Z,102.00
2019-02-27T20:22:10.364Z,96.03
2019-02-27T20:24:43.036Z,101.43
2019-02-27T20:27:12.039Z,113.00
2019-02-27T20:29:41.276Z,111.37
2019-02-27T20:32:10.968Z,116.00
2019-02-27T20:34:42.682Z,111.70
2019-02-27T20:37:14.543Z,115.37
2019-02-27T20:39:43.715Z,121.90
2019-02-27T20:42:13.721Z,110.33
2019-02-27T20:44:43.555Z,110.47
2019-02-27T20:47:14.671Z,104.33
2019-02-27T20:49:46.465Z,97.73
2019-02-27T20:52:16.209Z,101.40
2019-02-27T20:54:45.645Z,97.50
2019-02-27T20:57:14.769Z,99.40
2019-02-27T20:59:43.946Z,92.07
2019-02-27T21:02:13.161Z,126.83
2019-02-27T21:04:42.713Z,137.93
2019-02-27T21:07:21.891Z,130.83
2019-02-27T21:09:53.293Z,128.10
2019-02-27T21:12:22.550Z,128.83
2019-02-27T21:14:55.114Z,133.17
2019-02-27T21:17:27.656Z,130.53
2019-02-27T21:19:59.278Z,136.53
2019-02-27T21:22:28.674Z,129.67
2019-02-27T21:24:57.902Z,143.67
2019-02-27T21:27:28.516Z,136.67
2019-02-27T21:29:57.969Z,136.33
2019-02-27T21:32:27.151Z,134.30
2019-02-27T21:34:58.673Z,142.23
2019-02-27T21:37:28.051Z,136.33
2019-02-27T21:40:02.098Z,143.70
2019-02-27T21:42:28.797Z,155.77
2019-02-27T21:45:03.679Z,135.80
2019-02-27T21:47:31.312Z,140.33
2019-02-27T21:50:00.456Z,152.93
2019-02-27T21:52:31.230Z,147.80
2019-02-27T21:55:00.391Z,147.83
2019-02-27T21:57:29.511Z,147.30
2019-02-27T21:59:58.619Z,152.60
2019-02-27T22:02:30.654Z,157.60
2019-02-27T22:05:00.024Z,144.00
2019-02-27T22:07:32.895Z,161.13
2019-02-27T22:10:00.515Z,144.33
2019-02-27T22:12:32.343Z,139.07
2019-02-27T22:15:00.691Z,137.67
2019-02-27T22:17:30.153Z,155.93
2019-02-27T22:19:59.401Z,146.53
2019-02-27T22:22:28.573Z,157.30
2019-02-27T22:24:57.746Z,150.87
2019-02-27T22:27:27.079Z,155.20
2019-02-27T22:29:59.702Z,161.50
2019-02-27T22:32:27.440Z,142.90
2019-02-27T22:34:59.275Z,115.63
2019-02-27T22:37:27.525Z,104.07
2019-02-27T22:39:56.758Z,90.80
2019-02-27T22:42:27.456Z,84.63
2019-02-27T22:45:00.667Z,92.33
2019-02-27T22:47:29.922Z,88.73
2019-02-27T22:50:05.870Z,81.07
2019-02-27T22:52:32.250Z,94.73
2019-02-27T22:55:01.393Z,146.07
2019-02-27T22:57:30.583Z,175.10
2019-02-27T23:00:03.296Z,170.13
2019-02-27T23:02:32.583Z,171.43
2019-02-27T23:05:04.926Z,174.03
2019-02-27T23:07:33.526Z,182.50
2019-02-27T23:10:03.203Z,197.93
2019-02-27T23:12:32.516Z,198.07
2019-02-27T23:15:01.793Z,180.87
2019-02-27T23:17:31.602Z,179.07
2019-02-27T23:20:01.692Z,182.60
2019-02-27T23:22:30.963Z,182.90
2019-02-27T23:25:00.222Z,186.50
2019-02-27T23:27:29.537Z,177.80
2019-02-27T23:29:58.725Z,194.93
2019-02-27T23:32:28.622Z,192.53
2019-02-27T23:34:58.462Z,191.73
2019-02-27T23:37:32.804Z,186.53
2019-02-27T23:40:09.478Z,189.73
2019-02-27T23:43:03.283Z,179.07
2019-02-27T23:45:48.666Z,178.23
2019-02-27T23:48:17.880Z,182.63
2019-02-27T23:50:47.139Z,173.50
2019-02-27T23:53:16.413Z,170.57
2019-02-27T23:55:45.806Z,237.67
2019-02-27T23:58:15.171Z,232.10
